Schillplate — ZDJJ8 — position and weather

sailwx.info

Track history (hours):
 
Tides and Currents Weather Stations Pressure Air Temp Water Temp Dewpoint Dewpoint Depression Visibility Wind Speed Wind Dir Waves Ship Positions

Schillplate

Last reported at 2016-Sep-14 13:33 UTC. Time now 2016-Sep-27 12:12 UTC.
Position N 55°33' W 006°33'.
Warning: this ship's position is 12 days out of date.

Length 86 m; draft 4 m.

Type: Cargo ship. MMSI: 236111603.

Date/timePositionNaut miles runAvg speedWind from/ knotsBaromVisibWave heightAir tempDewpointWater temp
2016-Sep-14 13:33N 55°33' W 006°33'1212.1
2016-Sep-14 12:33N 55°26' W 006°15'2612.8
2016-Sep-14 10:32N 55°08' W 005°42'1211.8
2016-Sep-14 09:32N 54°59' W 005°30'1111.8
2016-Sep-14 08:33N 54°50' W 005°18'1110.8
2016-Sep-14 07:33N 54°40' W 005°11'1111.1
2016-Sep-14 06:33N 54°29' W 005°08'231 5.7
2016-Sep-12 14:21N 50°39' W 005°52'1211.1
2016-Sep-12 13:18N 50°28' W 005°52'2511.5
2016-Sep-12 11:06N 50°02' W 005°52'44 9.4
2016-Sep-12 06:23N 49°53' W 004°45'3210.0
2016-Sep-12 03:08N 49°55' W 003°55'1610.2
2016-Sep-12 01:34N 49°57' W 003°30'2110.7
2016-Sep-11 23:34N 50°01' W 002°57'1211.7
2016-Sep-11 22:33N 50°04' W 002°39'1212.4
2016-Sep-11 21:34N 50°07' W 002°21'1412.6
2016-Sep-11 20:29N 50°11' W 002°00'6510.9
2016-Sep-11 14:29N 50°28' W 000°22'1010.6
2016-Sep-11 13:33N 50°31' W 000°07'1111.1
2016-Sep-11 12:34N 50°34' E 000°10'4711.7
2016-Sep-11 08:33N 50°57' E 001°14'1110.9
2016-Sep-11 07:34N 51°04' E 001°27'4511.2
2016-Sep-11 03:33N 51°39' E 002°12'17910.2
2016-Sep-10 10:04N 54°11' E 004°49'610.6
2016-Sep-10 09:31N 54°14' E 004°58'1111.0
2016-Sep-10 08:34N 54°19' E 005°13'1111.2
2016-Sep-10 07:33N 54°25' E 005°29'1111.1
2016-Sep-10 06:33N 54°31' E 005°46'4210.5
2016-Sep-10 02:32N 54°53' E 006°49'1010.4
2016-Sep-10 01:33N 54°58' E 007°04'1010.3
2016-Sep-10 00:34N 55°03' E 007°19'1010.4
2016-Sep-09 23:33N 55°09' E 007°34'1110.7
2016-Sep-09 22:34N 55°15' E 007°49'1111.1
2016-Sep-09 21:34N 55°22' E 008°05'1111.4
2016-Sep-09 20:33N 55°29' E 008°21'4 4.2
2016-Sep-09 19:31N 55°27' E 008°28'0 0.0
2016-Sep-09 18:19N 55°27' E 008°28'0 0.0
2016-Sep-09 17:31N 55°27' E 008°28'0 0.0
2016-Sep-09 16:25N 55°27' E 008°28'0 0.0
2016-Sep-09 15:22N 55°27' E 008°28'0 0.0
2016-Sep-09 14:08N 55°27' E 008°28'0 0.0
2016-Sep-09 13:28N 55°27' E 008°28'0 0.0
2016-Sep-09 12:10N 55°27' E 008°28'0 0.0
2016-Sep-09 11:28N 55°27' E 008°28'0 0.0
2016-Sep-09 10:31N 55°27' E 008°28'0 0.0
2016-Sep-09 09:28N 55°27' E 008°28'0 0.0
2016-Sep-09 07:31N 55°27' E 008°28'0 0.0
2016-Sep-09 06:31N 55°27' E 008°28'0 0.0
2016-Sep-09 05:31N 55°27' E 008°28'0 0.0
2016-Sep-09 04:22N 55°27' E 008°28'0 0.0
2016-Sep-09 03:22N 55°27' E 008°28'0 0.0
2016-Sep-09 02:22N 55°27' E 008°28'0 0.0
2016-Sep-09 01:12N 55°27' E 008°28'0 0.0
2016-Sep-08 23:25N 55°27' E 008°28'0 0.0
2016-Sep-08 22:25N 55°27' E 008°28'0 0.0
2016-Sep-08 21:28N 55°27' E 008°28'0 0.0
2016-Sep-08 20:25N 55°27' E 008°28'0 0.0
2016-Sep-08 19:31N 55°27' E 008°28'0 0.0
2016-Sep-08 18:25N 55°27' E 008°28'0 0.0
2016-Sep-08 17:19N 55°27' E 008°28'0 0.0
2016-Sep-08 16:31N 55°27' E 008°28'0 0.0
2016-Sep-08 15:17N 55°27' E 008°28'0 0.0
2016-Sep-08 14:19N 55°27' E 008°28'0 0.0
2016-Sep-08 13:22N 55°27' E 008°28'0 0.0
2016-Sep-08 12:25N 55°27' E 008°28'0 0.0
2016-Sep-08 11:07N 55°27' E 008°28'0 0.0
2016-Sep-08 10:22N 55°27' E 008°28'0 0.0
2016-Sep-08 09:22N 55°27' E 008°28'0 0.0
2016-Sep-08 08:28N 55°27' E 008°28'0 0.0
2016-Sep-08 07:31N 55°27' E 008°28'0 0.0
2016-Sep-08 06:31N 55°27' E 008°28'0 0.0
2016-Sep-08 05:28N 55°27' E 008°28'0 0.0
2016-Sep-08 04:28N 55°27' E 008°28'0 0.0
2016-Sep-08 03:28N 55°27' E 008°28'1 1.1
2016-Sep-08 02:33N 55°27' E 008°27'8 8.0
2016-Sep-08 01:34N 55°25' E 008°13'1110.5
2016-Sep-08 00:33N 55°15' E 008°08'1010.5
2016-Sep-07 23:34N 55°05' E 008°04'1010.3
2016-Sep-07 22:33N 54°55' E 007°60'1010.2
2016-Sep-07 21:33N 54°45' E 007°56'10 9.9
2016-Sep-07 20:33N 54°35' E 007°55'1110.7
2016-Sep-07 19:34N 54°25' E 008°01'1111.1
2016-Sep-07 18:33N 54°14' E 008°01'1111.0
2016-Sep-07 17:34N 54°03' E 007°60'10 9.8
2016-Sep-07 16:33N 53°53' E 008°04'1111.3
2016-Sep-07 15:33N 53°44' E 008°15'1010.2
2016-Sep-07 14:34N 53°37' E 008°28'4 4.0
2016-Sep-07 13:33N 53°34' E 008°33'0 0.0
2016-Sep-07 12:33N 53°34' E 008°33'0 0.0
2016-Sep-07 11:33N 53°34' E 008°33'0 0.0
2016-Sep-07 10:33N 53°34' E 008°33'0 0.0
2016-Sep-07 09:27N 53°34' E 008°33'0 0.0
2016-Sep-07 08:33N 53°34' E 008°33'0 0.0
2016-Sep-07 07:33N 53°34' E 008°33'0 0.0
2016-Sep-07 06:33N 53°34' E 008°33'0 0.0
2016-Sep-07 04:33N 53°34' E 008°33'0 0.0
2016-Sep-07 03:33N 53°34' E 008°33'0 0.0
2016-Sep-07 02:33N 53°34' E 008°33'0 0.0
2016-Sep-07 01:27N 53°34' E 008°33'0 0.0
2016-Sep-07 00:33N 53°34' E 008°33'0 0.0
2016-Sep-06 23:33N 53°34' E 008°33'0 0.0
2016-Sep-06 22:33N 53°34' E 008°33'0 0.0
2016-Sep-06 21:33N 53°34' E 008°33'0 0.0
2016-Sep-06 20:33N 53°34' E 008°33'0 0.0
2016-Sep-06 19:33N 53°34' E 008°33'0 0.0
2016-Sep-06 18:33N 53°34' E 008°33'0 0.0
2016-Sep-06 17:33N 53°34' E 008°33'0 0.0
2016-Sep-06 16:33N 53°34' E 008°33'0 0.0
2016-Sep-06 15:33N 53°34' E 008°33'0 0.0
2016-Sep-06 14:33N 53°34' E 008°33'0 0.0
2016-Sep-06 13:33N 53°34' E 008°33'0 0.0
2016-Sep-06 12:33N 53°34' E 008°33'0 0.0
2016-Sep-06 11:33N 53°34' E 008°33'0 0.0
2016-Sep-06 10:33N 53°34' E 008°33'0 0.0
2016-Sep-06 09:33N 53°34' E 008°33'0 0.0
2016-Sep-06 08:33N 53°34' E 008°33'3 3.0
2016-Sep-06 07:33N 53°37' E 008°29'8 8.5
2016-Sep-06 06:34N 53°42' E 008°19'17 8.5
2016-Sep-06 04:34N 53°51' E 007°55'1010.1
2016-Sep-06 03:33N 53°53' E 007°38'1110.8
2016-Sep-06 02:33N 53°52' E 007°19'1111.4
2016-Sep-06 01:33N 53°50' E 007°01'1211.7
2016-Sep-06 00:33N 53°47' E 006°41'1212.1
2016-Sep-05 23:33N 53°44' E 006°21'1212.5
2016-Sep-05 22:34N 53°40' E 006°01'1312.5
2016-Sep-05 21:34N 53°36' E 005°41'1312.7
2016-Sep-05 20:34N 53°32' E 005°21'1313.0
2016-Sep-05 19:33N 53°28' E 005°00'4212.1
2016-Sep-05 16:03N 52°54' E 004°18'611.5
2016-Sep-05 15:34N 52°49' E 004°13'1111.0
2016-Sep-05 14:33N 52°41' E 004°01'8410.3
2016-Sep-05 06:25N 51°40' E 002°26'2312.1
2016-Sep-05 04:34N 51°23' E 002°02'1313.2
2016-Sep-05 03:34N 51°13' E 001°48'1414.0
2016-Sep-05 02:33N 51°01' E 001°36'7512.0
2016-Sep-04 20:21N 50°17' E 000°01'911.5
2016-Sep-04 19:33N 50°14' W 000°12'  
Track history (hours):
 
Tides and Currents Weather Stations Pressure Air Temp Water Temp Dewpoint Dewpoint Depression Visibility Wind Speed Wind Dir Waves Ship Positions

Schillplate

Last reported at 2016-Sep-14 13:33 UTC. Time now 2016-Sep-27 12:12 UTC.
Position N 55°33' W 006°33'.
Warning: this ship's position is 12 days out of date.

Length 86 m; draft 4 m.

Type: Cargo ship. MMSI: 236111603.

Date/timePositionNaut miles runAvg speedWind from/ knotsBaromVisibWave heightAir tempDewpointWater temp
2016-Sep-14 13:33N 55°33' W 006°33'1212.1
2016-Sep-14 12:33N 55°26' W 006°15'2612.8
2016-Sep-14 10:32N 55°08' W 005°42'1211.8
2016-Sep-14 09:32N 54°59' W 005°30'1111.8
2016-Sep-14 08:33N 54°50' W 005°18'1110.8
2016-Sep-14 07:33N 54°40' W 005°11'1111.1
2016-Sep-14 06:33N 54°29' W 005°08'231 5.7
2016-Sep-12 14:21N 50°39' W 005°52'1211.1
2016-Sep-12 13:18N 50°28' W 005°52'2511.5
2016-Sep-12 11:06N 50°02' W 005°52'44 9.4
2016-Sep-12 06:23N 49°53' W 004°45'3210.0
2016-Sep-12 03:08N 49°55' W 003°55'1610.2
2016-Sep-12 01:34N 49°57' W 003°30'2110.7
2016-Sep-11 23:34N 50°01' W 002°57'1211.7
2016-Sep-11 22:33N 50°04' W 002°39'1212.4
2016-Sep-11 21:34N 50°07' W 002°21'1412.6
2016-Sep-11 20:29N 50°11' W 002°00'6510.9
2016-Sep-11 14:29N 50°28' W 000°22'1010.6
2016-Sep-11 13:33N 50°31' W 000°07'1111.1
2016-Sep-11 12:34N 50°34' E 000°10'4711.7
2016-Sep-11 08:33N 50°57' E 001°14'1110.9
2016-Sep-11 07:34N 51°04' E 001°27'4511.2
2016-Sep-11 03:33N 51°39' E 002°12'17910.2
2016-Sep-10 10:04N 54°11' E 004°49'610.6
2016-Sep-10 09:31N 54°14' E 004°58'1111.0
2016-Sep-10 08:34N 54°19' E 005°13'1111.2
2016-Sep-10 07:33N 54°25' E 005°29'1111.1
2016-Sep-10 06:33N 54°31' E 005°46'4210.5
2016-Sep-10 02:32N 54°53' E 006°49'1010.4
2016-Sep-10 01:33N 54°58' E 007°04'1010.3
2016-Sep-10 00:34N 55°03' E 007°19'1010.4
2016-Sep-09 23:33N 55°09' E 007°34'1110.7
2016-Sep-09 22:34N 55°15' E 007°49'1111.1
2016-Sep-09 21:34N 55°22' E 008°05'1111.4
2016-Sep-09 20:33N 55°29' E 008°21'4 4.2
2016-Sep-09 19:31N 55°27' E 008°28'0 0.0
2016-Sep-09 18:19N 55°27' E 008°28'0 0.0
2016-Sep-09 17:31N 55°27' E 008°28'0 0.0
2016-Sep-09 16:25N 55°27' E 008°28'0 0.0
2016-Sep-09 15:22N 55°27' E 008°28'0 0.0
2016-Sep-09 14:08N 55°27' E 008°28'0 0.0
2016-Sep-09 13:28N 55°27' E 008°28'0 0.0
2016-Sep-09 12:10N 55°27' E 008°28'0 0.0
2016-Sep-09 11:28N 55°27' E 008°28'0 0.0
2016-Sep-09 10:31N 55°27' E 008°28'0 0.0
2016-Sep-09 09:28N 55°27' E 008°28'0 0.0
2016-Sep-09 07:31N 55°27' E 008°28'0 0.0
2016-Sep-09 06:31N 55°27' E 008°28'0 0.0
2016-Sep-09 05:31N 55°27' E 008°28'0 0.0
2016-Sep-09 04:22N 55°27' E 008°28'0 0.0
2016-Sep-09 03:22N 55°27' E 008°28'0 0.0
2016-Sep-09 02:22N 55°27' E 008°28'0 0.0
2016-Sep-09 01:12N 55°27' E 008°28'0 0.0
2016-Sep-08 23:25N 55°27' E 008°28'0 0.0
2016-Sep-08 22:25N 55°27' E 008°28'0 0.0
2016-Sep-08 21:28N 55°27' E 008°28'0 0.0
2016-Sep-08 20:25N 55°27' E 008°28'0 0.0
2016-Sep-08 19:31N 55°27' E 008°28'0 0.0
2016-Sep-08 18:25N 55°27' E 008°28'0 0.0
2016-Sep-08 17:19N 55°27' E 008°28'0 0.0
2016-Sep-08 16:31N 55°27' E 008°28'0 0.0
2016-Sep-08 15:17N 55°27' E 008°28'0 0.0
2016-Sep-08 14:19N 55°27' E 008°28'0 0.0
2016-Sep-08 13:22N 55°27' E 008°28'0 0.0
2016-Sep-08 12:25N 55°27' E 008°28'0 0.0
2016-Sep-08 11:07N 55°27' E 008°28'0 0.0
2016-Sep-08 10:22N 55°27' E 008°28'0 0.0
2016-Sep-08 09:22N 55°27' E 008°28'0 0.0
2016-Sep-08 08:28N 55°27' E 008°28'0 0.0
2016-Sep-08 07:31N 55°27' E 008°28'0 0.0
2016-Sep-08 06:31N 55°27' E 008°28'0 0.0
2016-Sep-08 05:28N 55°27' E 008°28'0 0.0
2016-Sep-08 04:28N 55°27' E 008°28'0 0.0
2016-Sep-08 03:28N 55°27' E 008°28'1 1.1
2016-Sep-08 02:33N 55°27' E 008°27'8 8.0
2016-Sep-08 01:34N 55°25' E 008°13'1110.5
2016-Sep-08 00:33N 55°15' E 008°08'1010.5
2016-Sep-07 23:34N 55°05' E 008°04'1010.3
2016-Sep-07 22:33N 54°55' E 007°60'1010.2
2016-Sep-07 21:33N 54°45' E 007°56'10 9.9
2016-Sep-07 20:33N 54°35' E 007°55'1110.7
2016-Sep-07 19:34N 54°25' E 008°01'1111.1
2016-Sep-07 18:33N 54°14' E 008°01'1111.0
2016-Sep-07 17:34N 54°03' E 007°60'10 9.8
2016-Sep-07 16:33N 53°53' E 008°04'1111.3
2016-Sep-07 15:33N 53°44' E 008°15'1010.2
2016-Sep-07 14:34N 53°37' E 008°28'4 4.0
2016-Sep-07 13:33N 53°34' E 008°33'0 0.0
2016-Sep-07 12:33N 53°34' E 008°33'0 0.0
2016-Sep-07 11:33N 53°34' E 008°33'0 0.0
2016-Sep-07 10:33N 53°34' E 008°33'0 0.0
2016-Sep-07 09:27N 53°34' E 008°33'0 0.0
2016-Sep-07 08:33N 53°34' E 008°33'0 0.0
2016-Sep-07 07:33N 53°34' E 008°33'0 0.0
2016-Sep-07 06:33N 53°34' E 008°33'0 0.0
2016-Sep-07 04:33N 53°34' E 008°33'0 0.0
2016-Sep-07 03:33N 53°34' E 008°33'0 0.0
2016-Sep-07 02:33N 53°34' E 008°33'0 0.0
2016-Sep-07 01:27N 53°34' E 008°33'0 0.0
2016-Sep-07 00:33N 53°34' E 008°33'0 0.0
2016-Sep-06 23:33N 53°34' E 008°33'0 0.0
2016-Sep-06 22:33N 53°34' E 008°33'0 0.0
2016-Sep-06 21:33N 53°34' E 008°33'0 0.0
2016-Sep-06 20:33N 53°34' E 008°33'0 0.0
2016-Sep-06 19:33N 53°34' E 008°33'0 0.0
2016-Sep-06 18:33N 53°34' E 008°33'0 0.0
2016-Sep-06 17:33N 53°34' E 008°33'0 0.0
2016-Sep-06 16:33N 53°34' E 008°33'0 0.0
2016-Sep-06 15:33N 53°34' E 008°33'0 0.0
2016-Sep-06 14:33N 53°34' E 008°33'0 0.0
2016-Sep-06 13:33N 53°34' E 008°33'0 0.0
2016-Sep-06 12:33N 53°34' E 008°33'0 0.0
2016-Sep-06 11:33N 53°34' E 008°33'0 0.0
2016-Sep-06 10:33N 53°34' E 008°33'0 0.0
2016-Sep-06 09:33N 53°34' E 008°33'0 0.0
2016-Sep-06 08:33N 53°34' E 008°33'3 3.0
2016-Sep-06 07:33N 53°37' E 008°29'8 8.5
2016-Sep-06 06:34N 53°42' E 008°19'17 8.5
2016-Sep-06 04:34N 53°51' E 007°55'1010.1
2016-Sep-06 03:33N 53°53' E 007°38'1110.8
2016-Sep-06 02:33N 53°52' E 007°19'1111.4
2016-Sep-06 01:33N 53°50' E 007°01'1211.7
2016-Sep-06 00:33N 53°47' E 006°41'1212.1
2016-Sep-05 23:33N 53°44' E 006°21'1212.5
2016-Sep-05 22:34N 53°40' E 006°01'1312.5
2016-Sep-05 21:34N 53°36' E 005°41'1312.7
2016-Sep-05 20:34N 53°32' E 005°21'1313.0
2016-Sep-05 19:33N 53°28' E 005°00'4212.1
2016-Sep-05 16:03N 52°54' E 004°18'611.5
2016-Sep-05 15:34N 52°49' E 004°13'1111.0
2016-Sep-05 14:33N 52°41' E 004°01'8410.3
2016-Sep-05 06:25N 51°40' E 002°26'2312.1
2016-Sep-05 04:34N 51°23' E 002°02'1313.2
2016-Sep-05 03:34N 51°13' E 001°48'1414.0
2016-Sep-05 02:33N 51°01' E 001°36'7512.0
2016-Sep-04 20:21N 50°17' E 000°01'911.5
2016-Sep-04 19:33N 50°14' W 000°12'  

Dump ship's entire track history